createdAt,value
2019-05-06T00:00:36.673Z,4.10
2019-05-06T00:03:06.129Z,4.10
2019-05-06T00:05:37.337Z,4.10
2019-05-06T00:08:06.798Z,4.10
2019-05-06T00:10:37.797Z,4.20
2019-05-06T00:13:07.393Z,4.10
2019-05-06T00:15:37.019Z,4.20
2019-05-06T00:18:06.742Z,4.10
2019-05-06T00:20:36.483Z,4.00
2019-05-06T00:23:07.825Z,4.00
2019-05-06T00:25:45.063Z,4.00
2019-05-06T00:28:16.513Z,3.90
2019-05-06T00:30:47.668Z,3.70
2019-05-06T00:33:17.188Z,3.70
2019-05-06T00:35:46.654Z,3.60
2019-05-06T00:38:16.114Z,3.60
2019-05-06T00:40:47.200Z,3.50
2019-05-06T00:43:16.681Z,3.40
2019-05-06T00:45:47.121Z,3.40
2019-05-06T00:48:16.625Z,3.30
2019-05-06T00:50:46.105Z,3.30
2019-05-06T00:53:17.172Z,3.30
2019-05-06T00:55:46.748Z,3.30
2019-05-06T00:58:16.218Z,3.30
2019-05-06T01:00:45.772Z,3.30
2019-05-06T01:03:15.293Z,3.20
2019-05-06T01:05:44.771Z,3.20
2019-05-06T01:08:19.876Z,3.10
2019-05-06T01:10:49.444Z,3.10
2019-05-06T01:13:20.719Z,3.00
2019-05-06T01:15:50.544Z,3.00
2019-05-06T01:18:20.042Z,3.00
2019-05-06T01:20:51.138Z,3.00
2019-05-06T01:23:20.781Z,2.90
2019-05-06T01:25:50.306Z,2.90
2019-05-06T01:28:19.763Z,2.90
2019-05-06T01:30:49.220Z,2.90
2019-05-06T01:33:18.746Z,2.90
2019-05-06T01:35:48.224Z,2.80
2019-05-06T01:38:19.321Z,2.80
2019-05-06T01:40:50.437Z,2.80
2019-05-06T01:43:21.539Z,2.80
2019-05-06T01:45:51.001Z,2.80
2019-05-06T01:48:22.119Z,2.80
2019-05-06T01:50:51.605Z,2.70
2019-05-06T01:53:21.060Z,2.60
2019-05-06T01:55:50.536Z,2.60
2019-05-06T01:58:20.025Z,2.50
2019-05-06T02:00:50.549Z,2.50
2019-05-06T02:03:20.044Z,2.50
2019-05-06T02:05:49.539Z,2.40
2019-05-06T02:08:18.989Z,2.40
2019-05-06T02:10:48.513Z,2.30
2019-05-06T02:13:17.994Z,2.30
2019-05-06T02:15:47.452Z,2.30
2019-05-06T02:18:18.712Z,2.30
2019-05-06T02:20:49.889Z,2.20
2019-05-06T02:23:21.142Z,2.20
2019-05-06T02:25:53.990Z,2.10
2019-05-06T02:28:23.681Z,2.10
2019-05-06T02:30:55.026Z,2.00
2019-05-06T02:33:35.723Z,2.10
2019-05-06T02:36:07.206Z,2.10
2019-05-06T02:38:47.030Z,2.00
2019-05-06T02:41:27.256Z,2.00
2019-05-06T02:43:56.746Z,2.00
2019-05-06T02:46:26.218Z,1.90
2019-05-06T02:48:57.325Z,1.90
2019-05-06T02:51:26.962Z,1.90
2019-05-06T02:54:15.763Z,1.80
2019-05-06T02:56:45.237Z,1.80
2019-05-06T02:59:14.889Z,1.80
2019-05-06T03:01:45.363Z,1.90
2019-05-06T03:04:14.959Z,1.80
2019-05-06T03:06:44.917Z,1.80
2019-05-06T03:09:14.515Z,1.90
2019-05-06T03:11:44.057Z,1.90
2019-05-06T03:14:14.101Z,1.80
2019-05-06T03:16:44.175Z,1.70
2019-05-06T03:19:13.942Z,1.80
2019-05-06T03:21:45.179Z,1.80
2019-05-06T03:26:58.225Z,1.70
2019-05-06T03:29:27.747Z,1.70
2019-05-06T03:31:57.608Z,1.60
2019-05-06T03:34:49.190Z,1.60
2019-05-06T03:36:58.631Z,1.70
2019-05-06T03:39:28.087Z,1.70
2019-05-06T03:41:57.598Z,1.70
2019-05-06T03:44:27.067Z,1.60
2019-05-06T03:46:58.529Z,1.70
2019-05-06T03:49:29.661Z,1.60
2019-05-06T03:51:59.158Z,1.60
2019-05-06T03:54:29.714Z,1.60
2019-05-06T03:56:59.496Z,1.60
2019-05-06T03:59:33.564Z,1.70
2019-05-06T04:02:05.336Z,1.70
2019-05-06T04:04:34.422Z,1.70
2019-05-06T04:07:04.162Z,1.70
2019-05-06T04:09:36.931Z,1.70
2019-05-06T04:12:05.165Z,1.70
2019-05-06T04:14:34.919Z,1.60
2019-05-06T04:17:06.254Z,1.50
2019-05-06T04:19:38.263Z,1.50
2019-05-06T04:22:12.562Z,1.40
2019-05-06T04:24:43.061Z,1.40
2019-05-06T04:27:18.889Z,1.40
2019-05-06T04:29:48.660Z,1.40
2019-05-06T04:32:18.849Z,1.40
2019-05-06T04:34:48.788Z,1.50
2019-05-06T04:37:19.403Z,1.50
2019-05-06T04:39:53.160Z,1.50
2019-05-06T04:42:23.261Z,1.50
2019-05-06T04:44:53.722Z,1.50
2019-05-06T04:47:24.311Z,1.50
2019-05-06T04:49:54.433Z,1.60
2019-05-06T04:52:26.053Z,1.60
2019-05-06T04:54:55.136Z,1.60
2019-05-06T04:57:25.026Z,1.70
2019-05-06T04:59:55.336Z,1.70
2019-05-06T05:02:25.191Z,1.80
2019-05-06T05:05:06.960Z,1.80
2019-05-06T05:07:36.921Z,1.90
2019-05-06T05:10:08.798Z,2.00
2019-05-06T05:12:42.563Z,2.10
2019-05-06T05:15:13.133Z,2.20
2019-05-06T05:17:44.203Z,2.20
2019-05-06T05:20:14.102Z,2.30
2019-05-06T05:22:43.796Z,2.40
2019-05-06T05:25:13.893Z,2.60
2019-05-06T05:27:43.495Z,2.70
2019-05-06T05:30:13.568Z,2.90
2019-05-06T05:32:43.350Z,3.00
2019-05-06T05:35:13.132Z,3.20
2019-05-06T05:37:42.660Z,3.30
2019-05-06T05:40:12.996Z,3.30
2019-05-06T05:42:44.649Z,3.40
2019-05-06T05:45:14.810Z,3.60
2019-05-06T05:47:44.821Z,3.80
2019-05-06T05:50:16.257Z,4.00
2019-05-06T05:52:45.975Z,4.20
2019-05-06T05:55:15.586Z,4.50
2019-05-06T05:57:45.225Z,4.70
2019-05-06T06:00:16.614Z,4.70
2019-05-06T06:02:46.308Z,4.90
2019-05-06T06:05:16.225Z,5.10
2019-05-06T06:07:45.951Z,5.20
2019-05-06T06:10:17.732Z,5.40
2019-05-06T06:12:47.302Z,5.60
2019-05-06T06:15:18.689Z,5.80
2019-05-06T06:17:51.941Z,5.80
2019-05-06T06:20:23.323Z,5.80
2019-05-06T06:22:54.160Z,6.10
2019-05-06T06:25:24.323Z,6.10
2019-05-06T06:27:54.246Z,6.40
2019-05-06T06:30:25.390Z,6.10
2019-05-06T06:32:56.115Z,6.10
2019-05-06T06:35:27.272Z,6.30
2019-05-06T06:37:58.420Z,6.80
2019-05-06T06:40:28.149Z,6.90
2019-05-06T06:42:59.293Z,7.20
2019-05-06T06:45:28.837Z,7.40
2019-05-06T06:47:58.362Z,7.40
2019-05-06T06:50:38.641Z,7.70
2019-05-06T06:53:08.097Z,7.90
2019-05-06T06:55:39.249Z,8.20
2019-05-06T06:58:12.015Z,8.60
2019-05-06T07:00:43.158Z,9.00
2019-05-06T07:03:14.323Z,8.50
2019-05-06T07:05:46.376Z,8.20
2019-05-06T07:08:15.842Z,8.80
2019-05-06T07:10:45.691Z,9.50
2019-05-06T07:13:16.999Z,9.80
2019-05-06T07:15:46.798Z,10.70
2019-05-06T07:18:16.499Z,11.50
2019-05-06T07:20:47.838Z,12.30
2019-05-06T07:23:18.978Z,12.90
2019-05-06T07:25:48.567Z,13.40
2019-05-06T07:28:18.157Z,15.80
2019-05-06T07:30:47.653Z,16.80
2019-05-06T07:33:17.209Z,18.50
2019-05-06T07:35:46.793Z,19.70
2019-05-06T07:38:16.347Z,20.70
2019-05-06T07:40:53.501Z,17.70
2019-05-06T07:43:24.667Z,15.70
2019-05-06T07:45:55.773Z,14.80
2019-05-06T07:48:25.252Z,12.90
2019-05-06T07:50:54.973Z,12.30
2019-05-06T07:53:24.508Z,13.00
2019-05-06T07:55:54.028Z,13.80
2019-05-06T07:58:23.501Z,14.70
2019-05-06T08:00:53.007Z,16.10
2019-05-06T08:03:22.590Z,15.40
2019-05-06T08:05:58.250Z,15.30
2019-05-06T08:08:23.279Z,15.90
2019-05-06T08:10:52.820Z,16.90
2019-05-06T08:13:22.682Z,19.10
2019-05-06T08:15:53.029Z,19.70
2019-05-06T08:18:23.475Z,18.50
2019-05-06T08:20:57.806Z,18.90
2019-05-06T08:23:28.956Z,19.80
2019-05-06T08:26:10.018Z,19.50
2019-05-06T08:28:38.596Z,16.70
2019-05-06T08:31:02.380Z,15.10
2019-05-06T08:33:32.738Z,14.00
2019-05-06T08:36:11.700Z,13.00
2019-05-06T08:38:36.882Z,13.20
2019-05-06T08:41:06.526Z,12.90
2019-05-06T08:43:35.994Z,13.50
2019-05-06T08:46:05.498Z,13.70
2019-05-06T08:48:35.021Z,13.90
2019-05-06T08:51:09.005Z,12.50
2019-05-06T08:53:39.007Z,11.70
2019-05-06T08:56:12.584Z,10.80
2019-05-06T08:58:43.327Z,10.90
2019-05-06T09:01:15.044Z,10.50
2019-05-06T09:03:44.968Z,10.50
2019-05-06T09:06:26.481Z,10.90
2019-05-06T09:09:07.547Z,10.90
2019-05-06T09:11:37.249Z,11.00
2019-05-06T09:14:09.821Z,11.20
2019-05-06T09:16:38.917Z,11.20
2019-05-06T09:19:27.719Z,11.70
2019-05-06T09:21:57.273Z,12.20
2019-05-06T09:24:26.739Z,12.40
2019-05-06T09:26:57.933Z,12.70
2019-05-06T09:29:29.058Z,12.60
2019-05-06T09:32:01.814Z,12.70
2019-05-06T09:34:32.999Z,12.60
2019-05-06T09:37:07.814Z,12.70
2019-05-06T09:39:37.327Z,12.40
2019-05-06T09:42:06.948Z,12.80
2019-05-06T09:44:36.408Z,13.20
2019-05-06T09:47:07.828Z,13.40
2019-05-06T09:49:38.984Z,13.40
2019-05-06T09:52:08.485Z,13.40
2019-05-06T09:54:39.779Z,13.40
2019-05-06T09:57:12.891Z,13.50
2019-05-06T09:59:42.267Z,13.40
2019-05-06T10:02:12.541Z,13.70
2019-05-06T10:04:42.919Z,13.60
2019-05-06T10:07:12.778Z,13.90
2019-05-06T10:09:43.409Z,14.10
2019-05-06T10:12:13.394Z,12.80
2019-05-06T10:14:43.529Z,12.70
2019-05-06T10:17:13.411Z,13.70
2019-05-06T10:19:43.181Z,15.40
2019-05-06T10:22:12.933Z,17.10
2019-05-06T10:24:43.109Z,18.60
2019-05-06T10:27:13.170Z,19.50
2019-05-06T10:29:44.311Z,19.10
2019-05-06T10:32:22.433Z,18.20
2019-05-06T10:34:52.627Z,16.40
2019-05-06T10:37:27.893Z,16.10
2019-05-06T10:40:04.875Z,13.80
2019-05-06T10:42:38.954Z,12.80
2019-05-06T10:45:13.123Z,13.10
2019-05-06T10:47:42.623Z,13.50
2019-05-06T10:50:12.748Z,13.60
2019-05-06T10:52:43.834Z,13.90
2019-05-06T10:55:13.483Z,14.70
2019-05-06T10:57:44.714Z,14.70
2019-05-06T11:00:14.745Z,15.80
2019-05-06T11:02:45.895Z,16.70
2019-05-06T11:05:16.839Z,16.90
2019-05-06T11:07:46.384Z,16.60
2019-05-06T11:10:24.443Z,16.10
2019-05-06T11:12:47.702Z,16.20
2019-05-06T11:15:23.518Z,16.30
2019-05-06T11:17:52.945Z,16.40
2019-05-06T11:20:24.150Z,16.70
2019-05-06T11:22:54.081Z,16.80
2019-05-06T11:25:23.713Z,16.50
2019-05-06T11:27:53.394Z,15.70
2019-05-06T11:30:24.800Z,15.80
2019-05-06T11:32:56.093Z,16.00
2019-05-06T11:35:27.343Z,16.80
2019-05-06T11:37:59.462Z,17.40
2019-05-06T11:40:28.987Z,18.00
2019-05-06T11:42:58.535Z,17.30
2019-05-06T11:45:28.049Z,17.40
2019-05-06T11:47:57.523Z,17.10
2019-05-06T11:50:27.170Z,16.90
2019-05-06T11:52:57.350Z,17.10
2019-05-06T11:55:31.227Z,17.10
2019-05-06T11:57:58.084Z,16.80
2019-05-06T12:00:29.430Z,16.80
2019-05-06T12:02:58.927Z,16.20
2019-05-06T12:05:28.706Z,15.90
2019-05-06T12:08:07.237Z,16.10
2019-05-06T12:10:29.500Z,15.90
2019-05-06T12:12:59.023Z,15.70
2019-05-06T12:15:28.562Z,15.80
2019-05-06T12:17:58.040Z,15.30
2019-05-06T12:20:27.533Z,16.60
2019-05-06T12:22:57.026Z,17.30
2019-05-06T12:25:26.570Z,16.60
2019-05-06T12:27:56.097Z,15.80
2019-05-06T12:30:28.222Z,17.20
2019-05-06T12:32:59.359Z,18.60
2019-05-06T12:35:28.850Z,19.80
2019-05-06T12:38:05.167Z,19.10
2019-05-06T12:40:32.055Z,19.00
2019-05-06T12:43:04.114Z,19.50
2019-05-06T12:45:35.519Z,18.80
2019-05-06T12:48:06.727Z,18.70
2019-05-06T12:50:36.759Z,18.90
2019-05-06T12:53:06.222Z,19.60
2019-05-06T12:55:36.096Z,19.00
2019-05-06T12:58:05.618Z,19.90
2019-05-06T13:00:35.114Z,21.00
2019-05-06T13:03:04.711Z,21.40
2019-05-06T13:05:34.406Z,21.10
2019-05-06T13:08:05.938Z,19.90
2019-05-06T13:10:54.528Z,19.90
2019-05-06T13:13:24.300Z,18.10
2019-05-06T13:15:53.825Z,17.40
2019-05-06T13:18:23.400Z,17.40
2019-05-06T13:20:53.439Z,17.20
2019-05-06T13:23:26.968Z,17.00
2019-05-06T13:25:56.495Z,17.10
2019-05-06T13:28:30.433Z,17.00
2019-05-06T13:31:13.374Z,16.70
2019-05-06T13:36:07.903Z,17.60
2019-05-06T13:38:37.391Z,18.20
2019-05-06T13:41:06.865Z,18.00
2019-05-06T13:43:37.986Z,18.00
2019-05-06T13:46:09.305Z,15.80
2019-05-06T13:48:42.648Z,15.70
2019-05-06T13:51:13.659Z,16.40
2019-05-06T13:54:02.751Z,17.00
2019-05-06T13:56:33.341Z,16.90
2019-05-06T13:59:05.084Z,17.00
2019-05-06T14:01:35.891Z,17.00
2019-05-06T14:04:05.471Z,16.90
2019-05-06T14:06:35.326Z,16.70
2019-05-06T14:09:08.334Z,17.00
2019-05-06T14:11:38.249Z,17.10
2019-05-06T14:14:08.176Z,16.60
2019-05-06T14:16:37.675Z,16.60
2019-05-06T14:19:07.218Z,16.10
2019-05-06T14:21:36.689Z,16.20
2019-05-06T14:24:06.189Z,15.90
2019-05-06T14:26:37.270Z,15.70
2019-05-06T14:29:08.554Z,15.80
2019-05-06T14:31:39.663Z,15.70
2019-05-06T14:34:09.134Z,16.00
2019-05-06T14:36:38.645Z,16.10
2019-05-06T14:39:09.888Z,16.00
2019-05-06T14:41:44.580Z,16.20
2019-05-06T14:44:12.306Z,16.10
2019-05-06T14:46:43.382Z,16.20
2019-05-06T14:49:15.514Z,16.40
2019-05-06T14:51:53.526Z,16.50
2019-05-06T14:54:22.707Z,16.30
2019-05-06T14:56:53.783Z,16.10
2019-05-06T14:59:23.602Z,16.20
2019-05-06T15:01:53.907Z,16.00
2019-05-06T15:04:23.525Z,15.50
2019-05-06T15:06:53.184Z,15.40
2019-05-06T15:09:24.438Z,15.50
2019-05-06T15:11:53.899Z,15.70
2019-05-06T15:14:23.406Z,15.80
2019-05-06T15:16:53.145Z,15.50
2019-05-06T15:19:22.879Z,15.70
2019-05-06T15:21:53.083Z,15.50
2019-05-06T15:24:24.418Z,15.60
2019-05-06T15:27:13.353Z,15.60
2019-05-06T15:29:44.434Z,15.60
2019-05-06T15:32:15.664Z,15.40
2019-05-06T15:34:46.782Z,14.90
2019-05-06T15:37:17.906Z,14.80
2019-05-06T15:39:47.408Z,15.10
2019-05-06T15:42:17.040Z,15.40
2019-05-06T15:44:46.546Z,15.50
2019-05-06T15:47:16.015Z,15.50
2019-05-06T15:49:45.494Z,15.20
2019-05-06T15:52:15.066Z,15.10
2019-05-06T15:54:44.589Z,15.10
2019-05-06T15:57:14.088Z,14.90
2019-05-06T15:59:44.457Z,14.60
2019-05-06T16:02:14.107Z,14.60
2019-05-06T16:04:43.598Z,14.80
2019-05-06T16:07:13.156Z,14.80
2019-05-06T16:09:43.044Z,14.80
2019-05-06T16:12:12.918Z,14.80
2019-05-06T16:14:42.618Z,14.60
2019-05-06T16:17:12.739Z,14.30
2019-05-06T16:19:43.508Z,14.10
2019-05-06T16:22:13.012Z,13.90
2019-05-06T16:24:44.137Z,13.70
2019-05-06T16:27:13.632Z,13.70
2019-05-06T16:29:43.163Z,13.60
2019-05-06T16:32:12.719Z,13.30
2019-05-06T16:34:43.100Z,13.40
2019-05-06T16:37:12.805Z,13.30
2019-05-06T16:39:42.518Z,13.30
2019-05-06T16:42:12.880Z,13.30
2019-05-06T16:44:45.091Z,13.30
2019-05-06T16:47:15.743Z,13.50
2019-05-06T16:49:45.200Z,13.40
2019-05-06T16:52:14.723Z,13.40
2019-05-06T16:54:44.205Z,13.20
2019-05-06T16:57:15.287Z,13.40
2019-05-06T16:59:44.827Z,13.50
2019-05-06T17:02:15.886Z,13.60
2019-05-06T17:04:47.012Z,13.50
2019-05-06T17:07:16.958Z,13.30
2019-05-06T17:09:46.427Z,13.40
2019-05-06T17:12:15.945Z,13.50
2019-05-06T17:14:45.441Z,13.40
2019-05-06T17:17:15.007Z,13.30
2019-05-06T17:19:44.462Z,13.10
2019-05-06T17:22:13.952Z,12.90
2019-05-06T17:24:43.462Z,12.80
2019-05-06T17:27:13.023Z,12.50
2019-05-06T17:29:44.174Z,12.30
2019-05-06T17:32:15.334Z,12.30
2019-05-06T17:34:46.446Z,12.10
2019-05-06T17:37:17.570Z,12.00
2019-05-06T17:39:47.061Z,12.00
2019-05-06T17:42:16.555Z,12.10
2019-05-06T17:44:46.073Z,11.90
2019-05-06T17:47:23.290Z,11.80
2019-05-06T17:49:53.011Z,11.60
2019-05-06T17:52:24.197Z,11.40
2019-05-06T17:54:53.678Z,11.40
2019-05-06T17:57:23.186Z,11.30
2019-05-06T17:59:52.955Z,11.20
2019-05-06T18:02:24.109Z,11.20
2019-05-06T18:04:53.669Z,11.20
2019-05-06T18:07:23.252Z,11.30
2019-05-06T18:09:52.891Z,11.20
2019-05-06T18:12:23.315Z,11.10
2019-05-06T18:14:53.522Z,11.00
2019-05-06T18:17:23.154Z,10.90
2019-05-06T18:19:52.670Z,10.90
2019-05-06T18:22:22.714Z,10.70
2019-05-06T18:24:52.615Z,10.70
2019-05-06T18:27:22.691Z,10.50
2019-05-06T18:29:53.250Z,10.50
2019-05-06T18:32:23.474Z,10.30
2019-05-06T18:34:53.088Z,10.30
2019-05-06T18:37:23.343Z,10.10
2019-05-06T18:39:53.182Z,10.00
2019-05-06T18:42:43.033Z,9.90
2019-05-06T18:45:13.785Z,9.90
2019-05-06T18:47:43.265Z,9.80
2019-05-06T18:50:13.498Z,9.50
2019-05-06T18:52:43.173Z,9.50
2019-05-06T18:55:13.262Z,9.50
2019-05-06T18:57:42.743Z,9.50
2019-05-06T19:00:13.419Z,9.60
2019-05-06T19:02:42.874Z,9.60
2019-05-06T19:05:14.472Z,9.60
2019-05-06T19:07:46.582Z,9.60
2019-05-06T19:10:17.471Z,9.50
2019-05-06T19:12:46.985Z,9.50
2019-05-06T19:15:16.677Z,9.30
2019-05-06T19:17:46.180Z,9.30
2019-05-06T19:20:16.196Z,9.20
2019-05-06T19:22:45.676Z,9.10
2019-05-06T19:25:15.848Z,9.10
2019-05-06T19:27:45.533Z,9.20
2019-05-06T19:30:16.016Z,9.10
2019-05-06T19:32:45.871Z,9.10
2019-05-06T19:35:15.689Z,9.10
2019-05-06T19:37:45.215Z,9.00
2019-05-06T19:40:15.207Z,8.90
2019-05-06T19:42:50.291Z,8.90
2019-05-06T19:45:22.228Z,8.80
2019-05-06T19:47:52.178Z,8.80
2019-05-06T19:50:25.727Z,8.70
2019-05-06T19:52:52.927Z,8.60
2019-05-06T19:55:23.164Z,8.50
2019-05-06T19:57:52.770Z,8.50
2019-05-06T20:00:22.908Z,8.30
2019-05-06T20:02:52.802Z,8.30
2019-05-06T20:05:24.290Z,8.20
2019-05-06T20:07:55.385Z,8.10
2019-05-06T20:10:26.550Z,8.10
2019-05-06T20:13:01.954Z,7.90
2019-05-06T20:15:30.480Z,7.90
2019-05-06T20:17:59.956Z,7.80
2019-05-06T20:20:32.639Z,7.70
2019-05-06T20:23:02.705Z,7.60
2019-05-06T20:25:32.071Z,7.50
2019-05-06T20:28:02.394Z,7.40
2019-05-06T20:30:32.739Z,7.40
2019-05-06T20:33:02.419Z,7.30
2019-05-06T20:35:32.951Z,7.20
2019-05-06T20:38:02.886Z,7.20
2019-05-06T20:40:33.039Z,7.10
2019-05-06T20:43:16.667Z,7.00
2019-05-06T20:45:35.475Z,6.90
2019-05-06T20:48:05.432Z,6.80
2019-05-06T20:50:34.916Z,6.80
2019-05-06T20:53:04.341Z,6.70
2019-05-06T20:55:35.708Z,6.60
2019-05-06T20:58:05.499Z,6.50
2019-05-06T21:00:34.978Z,6.40
2019-05-06T21:03:04.794Z,6.30
2019-05-06T21:05:34.299Z,6.20
2019-05-06T21:08:03.804Z,6.20
2019-05-06T21:10:33.327Z,6.10
2019-05-06T21:13:02.808Z,5.90
2019-05-06T21:15:32.638Z,5.90
2019-05-06T21:18:04.405Z,5.80
2019-05-06T21:20:33.380Z,5.70
2019-05-06T21:23:02.864Z,5.60
2019-05-06T21:25:32.750Z,5.50
2019-05-06T21:28:03.032Z,5.40
2019-05-06T21:30:33.273Z,5.30
2019-05-06T21:33:02.748Z,5.20
2019-05-06T21:35:33.129Z,5.20
2019-05-06T21:38:02.826Z,5.20
2019-05-06T21:40:32.877Z,5.20
2019-05-06T21:43:02.448Z,5.10
2019-05-06T21:45:33.129Z,5.00
2019-05-06T21:48:03.363Z,5.00
2019-05-06T21:50:33.244Z,5.00
2019-05-06T21:53:03.642Z,4.90
2019-05-06T21:55:33.127Z,4.80
2019-05-06T21:58:02.632Z,4.70
2019-05-06T22:00:34.201Z,4.70
2019-05-06T22:03:03.994Z,4.60
2019-05-06T22:05:33.503Z,4.50
2019-05-06T22:08:23.745Z,4.50
2019-05-06T22:10:54.457Z,4.40
2019-05-06T22:13:23.950Z,4.30
2019-05-06T22:15:53.533Z,4.20
2019-05-06T22:18:23.101Z,4.20
2019-05-06T22:20:54.265Z,4.20
2019-05-06T22:23:23.909Z,4.20
2019-05-06T22:25:53.380Z,4.20
2019-05-06T22:28:25.832Z,4.20
2019-05-06T22:30:55.297Z,4.10
2019-05-06T22:33:24.848Z,4.00
2019-05-06T22:35:54.911Z,4.00
2019-05-06T22:38:24.554Z,4.00
2019-05-06T22:40:54.055Z,4.00
2019-05-06T22:43:23.515Z,3.90
2019-05-06T22:45:58.965Z,3.90
2019-05-06T22:48:28.407Z,3.90
2019-05-06T22:50:57.885Z,3.80
2019-05-06T22:53:27.426Z,3.70
2019-05-06T22:55:58.522Z,3.70
2019-05-06T22:58:27.964Z,3.60
2019-05-06T23:00:58.280Z,3.50
2019-05-06T23:03:29.357Z,3.50
2019-05-06T23:05:58.838Z,3.40
2019-05-06T23:08:28.358Z,3.30
2019-05-06T23:10:57.918Z,3.30
2019-05-06T23:13:27.395Z,3.30
2019-05-06T23:15:56.888Z,3.30
2019-05-06T23:18:26.380Z,3.30
2019-05-06T23:20:55.834Z,3.20
2019-05-06T23:23:25.337Z,3.20
2019-05-06T23:26:02.913Z,3.10
2019-05-06T23:28:32.396Z,3.00
2019-05-06T23:31:01.990Z,3.00
2019-05-06T23:33:32.314Z,2.90
2019-05-06T23:36:02.654Z,2.90
2019-05-06T23:38:36.795Z,3.00
2019-05-06T23:41:14.512Z,3.00
2019-05-06T23:43:48.501Z,3.00
2019-05-06T23:46:23.005Z,3.00
2019-05-06T23:48:57.016Z,2.90
2019-05-06T23:51:33.021Z,2.90
2019-05-06T23:54:06.753Z,2.80
2019-05-06T23:56:43.372Z,2.80
2019-05-06T23:59:16.968Z,2.70
